sensor_id;sensor_type;location;lat;lon;timestamp;pressure;altitude;pressure_sealevel;temperature;humidity
77893;BME280;67087;50.094;14.338;2023-06-10T00:00:28;97769.21;;;26.11;32.98
77893;BME280;67087;50.094;14.338;2023-06-10T00:02:54;97770.40;;;25.45;33.22
77893;BME280;67087;50.094;14.338;2023-06-10T00:05:19;97767.70;;;26.13;33.26
77893;BME280;67087;50.094;14.338;2023-06-10T00:07:44;97764.35;;;26.02;33.03
77893;BME280;67087;50.094;14.338;2023-06-10T00:10:09;97763.75;;;25.97;33.03
77893;BME280;67087;50.094;14.338;2023-06-10T00:12:34;97762.96;;;26.04;32.93
77893;BME280;67087;50.094;14.338;2023-06-10T00:14:59;97768.22;;;25.85;33.13
77893;BME280;67087;50.094;14.338;2023-06-10T00:17:25;97770.62;;;25.87;33.10
77893;BME280;67087;50.094;14.338;2023-06-10T00:19:50;97767.96;;;25.69;32.99
77893;BME280;67087;50.094;14.338;2023-06-10T00:22:15;97765.70;;;25.85;33.09
77893;BME280;67087;50.094;14.338;2023-06-10T00:24:40;97765.24;;;25.79;33.09
77893;BME280;67087;50.094;14.338;2023-06-10T00:27:06;97766.11;;;25.87;32.98
77893;BME280;67087;50.094;14.338;2023-06-10T00:29:30;97769.42;;;26.11;32.96
77893;BME280;67087;50.094;14.338;2023-06-10T00:31:55;97773.51;;;25.37;32.95
77893;BME280;67087;50.094;14.338;2023-06-10T00:34:20;97775.02;;;26.15;32.83
77893;BME280;67087;50.094;14.338;2023-06-10T00:36:46;97772.58;;;25.94;32.78
77893;BME280;67087;50.094;14.338;2023-06-10T00:39:11;97774.09;;;25.74;33.02
77893;BME280;67087;50.094;14.338;2023-06-10T00:41:36;97775.40;;;26.08;32.86
77893;BME280;67087;50.094;14.338;2023-06-10T00:44:02;97774.27;;;25.87;32.80
77893;BME280;67087;50.094;14.338;2023-06-10T00:46:27;97774.51;;;25.92;32.75
77893;BME280;67087;50.094;14.338;2023-06-10T00:48:53;97775.90;;;26.06;32.81
77893;BME280;67087;50.094;14.338;2023-06-10T00:51:18;97775.78;;;25.82;32.81
77893;BME280;67087;50.094;14.338;2023-06-10T00:53:43;97775.51;;;25.87;32.72
77893;BME280;67087;50.094;14.338;2023-06-10T00:56:08;97778.12;;;25.81;32.81
77893;BME280;67087;50.094;14.338;2023-06-10T00:58:33;97776.58;;;25.75;32.84
77893;BME280;67087;50.094;14.338;2023-06-10T01:00:58;97774.37;;;26.04;32.78
77893;BME280;67087;50.094;14.338;2023-06-10T01:03:23;97776.60;;;26.03;32.73
77893;BME280;67087;50.094;14.338;2023-06-10T01:05:56;97777.58;;;25.55;32.71
77893;BME280;67087;50.094;14.338;2023-06-10T01:08:19;97778.95;;;25.86;32.63
77893;BME280;67087;50.094;14.338;2023-06-10T01:10:43;97779.26;;;25.78;32.70
77893;BME280;67087;50.094;14.338;2023-06-10T01:13:07;97779.93;;;25.74;32.73
77893;BME280;67087;50.094;14.338;2023-06-10T01:15:30;97783.69;;;25.72;32.75
77893;BME280;67087;50.094;14.338;2023-06-10T01:17:56;97785.47;;;25.61;32.59
77893;BME280;67087;50.094;14.338;2023-06-10T01:20:20;97789.48;;;25.85;32.49
77893;BME280;67087;50.094;14.338;2023-06-10T01:22:45;97789.32;;;25.77;32.58
77893;BME280;67087;50.094;14.338;2023-06-10T01:25:10;97792.48;;;25.95;32.34
77893;BME280;67087;50.094;14.338;2023-06-10T01:27:37;97794.23;;;25.86;32.47
77893;BME280;67087;50.094;14.338;2023-06-10T01:30:07;97795.17;;;25.79;32.52
77893;BME280;67087;50.094;14.338;2023-06-10T01:32:28;97795.90;;;25.81;32.51
77893;BME280;67087;50.094;14.338;2023-06-10T01:34:51;97797.43;;;25.37;32.40
77893;BME280;67087;50.094;14.338;2023-06-10T01:37:19;97799.31;;;26.03;32.50
77893;BME280;67087;50.094;14.338;2023-06-10T01:39:42;97796.21;;;26.39;32.00
77893;BME280;67087;50.094;14.338;2023-06-10T01:42:08;97798.83;;;25.92;32.26
77893;BME280;67087;50.094;14.338;2023-06-10T01:44:32;97801.15;;;26.21;32.25
77893;BME280;67087;50.094;14.338;2023-06-10T01:46:57;97801.62;;;25.95;32.26
77893;BME280;67087;50.094;14.338;2023-06-10T01:49:22;97802.10;;;26.30;32.06
77893;BME280;67087;50.094;14.338;2023-06-10T01:51:48;97804.39;;;25.91;32.26
77893;BME280;67087;50.094;14.338;2023-06-10T01:54:13;97805.98;;;26.29;32.06
77893;BME280;67087;50.094;14.338;2023-06-10T01:56:38;97808.24;;;26.15;32.25
77893;BME280;67087;50.094;14.338;2023-06-10T01:59:03;97810.29;;;25.94;32.14
77893;BME280;67087;50.094;14.338;2023-06-10T02:01:29;97815.12;;;25.91;32.19
77893;BME280;67087;50.094;14.338;2023-06-10T02:03:53;97817.21;;;25.65;32.22
77893;BME280;67087;50.094;14.338;2023-06-10T02:06:19;97821.42;;;26.00;32.05
77893;BME280;67087;50.094;14.338;2023-06-10T02:08:44;97821.89;;;26.30;31.97
77893;BME280;67087;50.094;14.338;2023-06-10T02:11:09;97827.07;;;26.18;31.80
77893;BME280;67087;50.094;14.338;2023-06-10T02:13:34;97827.01;;;26.27;32.00
77893;BME280;67087;50.094;14.338;2023-06-10T02:15:59;97825.64;;;26.00;32.00
77893;BME280;67087;50.094;14.338;2023-06-10T02:18:25;97823.61;;;26.18;32.00
77893;BME280;67087;50.094;14.338;2023-06-10T02:20:50;97822.88;;;25.42;32.06
77893;BME280;67087;50.094;14.338;2023-06-10T02:23:15;97819.03;;;26.33;31.77
77893;BME280;67087;50.094;14.338;2023-06-10T02:25:40;97820.91;;;25.99;31.86
77893;BME280;67087;50.094;14.338;2023-06-10T02:28:05;97822.21;;;26.18;31.93
77893;BME280;67087;50.094;14.338;2023-06-10T02:30:31;97823.08;;;26.16;31.99
77893;BME280;67087;50.094;14.338;2023-06-10T02:32:56;97825.67;;;25.49;31.90
77893;BME280;67087;50.094;14.338;2023-06-10T02:35:21;97827.06;;;25.87;32.06
77893;BME280;67087;50.094;14.338;2023-06-10T02:37:46;97828.93;;;25.93;31.95
77893;BME280;67087;50.094;14.338;2023-06-10T02:40:11;97829.14;;;25.97;31.88
77893;BME280;67087;50.094;14.338;2023-06-10T02:42:36;97826.89;;;25.99;31.82
77893;BME280;67087;50.094;14.338;2023-06-10T02:45:01;97828.86;;;25.97;31.82
77893;BME280;67087;50.094;14.338;2023-06-10T02:47:26;97827.54;;;26.02;31.78
77893;BME280;67087;50.094;14.338;2023-06-10T02:49:51;97828.28;;;25.59;31.66
77893;BME280;67087;50.094;14.338;2023-06-10T02:52:16;97825.66;;;26.14;31.53
77893;BME280;67087;50.094;14.338;2023-06-10T02:54:42;97826.57;;;26.16;31.51
77893;BME280;67087;50.094;14.338;2023-06-10T02:57:08;97823.55;;;25.99;31.71
77893;BME280;67087;50.094;14.338;2023-06-10T02:59:33;97826.87;;;25.79;31.66
77893;BME280;67087;50.094;14.338;2023-06-10T03:01:58;97826.89;;;26.16;31.49
77893;BME280;67087;50.094;14.338;2023-06-10T03:04:23;97830.87;;;26.20;31.45
77893;BME280;67087;50.094;14.338;2023-06-10T03:06:48;97830.84;;;25.89;31.51
77893;BME280;67087;50.094;14.338;2023-06-10T03:09:13;97831.02;;;26.22;31.38
77893;BME280;67087;50.094;14.338;2023-06-10T03:11:38;97831.17;;;26.08;31.55
77893;BME280;67087;50.094;14.338;2023-06-10T03:14:03;97832.53;;;25.83;31.51
77893;BME280;67087;50.094;14.338;2023-06-10T03:16:28;97837.02;;;26.26;31.52
77893;BME280;67087;50.094;14.338;2023-06-10T03:18:54;97837.05;;;25.59;31.50
77893;BME280;67087;50.094;14.338;2023-06-10T03:21:19;97839.06;;;26.09;31.48
77893;BME280;67087;50.094;14.338;2023-06-10T03:23:44;97840.48;;;26.04;31.45
77893;BME280;67087;50.094;14.338;2023-06-10T03:26:10;97837.82;;;26.00;31.49
77893;BME280;67087;50.094;14.338;2023-06-10T03:28:34;97836.92;;;26.18;31.59
77893;BME280;67087;50.094;14.338;2023-06-10T03:30:59;97833.75;;;25.56;31.46
77893;BME280;67087;50.094;14.338;2023-06-10T03:33:24;97834.24;;;25.96;31.56
77893;BME280;67087;50.094;14.338;2023-06-10T03:35:50;97834.02;;;25.64;31.64
77893;BME280;67087;50.094;14.338;2023-06-10T03:38:14;97833.99;;;25.97;31.48
77893;BME280;67087;50.094;14.338;2023-06-10T03:40:40;97838.18;;;25.89;31.59
77893;BME280;67087;50.094;14.338;2023-06-10T03:43:05;97839.48;;;25.87;31.62
77893;BME280;67087;50.094;14.338;2023-06-10T03:45:30;97840.20;;;26.05;31.67
77893;BME280;67087;50.094;14.338;2023-06-10T03:47:55;97839.58;;;25.90;31.58
77893;BME280;67087;50.094;14.338;2023-06-10T03:50:20;97840.40;;;25.93;31.54
77893;BME280;67087;50.094;14.338;2023-06-10T03:52:46;97843.79;;;25.93;31.55
77893;BME280;67087;50.094;14.338;2023-06-10T03:55:11;97844.88;;;25.78;31.73
77893;BME280;67087;50.094;14.338;2023-06-10T03:57:36;97846.18;;;25.78;31.74
77893;BME280;67087;50.094;14.338;2023-06-10T04:00:01;97847.54;;;26.13;31.60
77893;BME280;67087;50.094;14.338;2023-06-10T04:02:26;97847.04;;;25.97;31.51
77893;BME280;67087;50.094;14.338;2023-06-10T04:04:51;97844.28;;;25.36;31.64
77893;BME280;67087;50.094;14.338;2023-06-10T04:07:16;97847.40;;;25.85;31.65
77893;BME280;67087;50.094;14.338;2023-06-10T04:09:41;97852.38;;;26.23;31.77
77893;BME280;67087;50.094;14.338;2023-06-10T04:12:07;97855.52;;;25.80;31.71
77893;BME280;67087;50.094;14.338;2023-06-10T04:14:32;97858.61;;;26.33;31.64
77893;BME280;67087;50.094;14.338;2023-06-10T04:16:57;97858.26;;;25.96;31.54
77893;BME280;67087;50.094;14.338;2023-06-10T04:19:22;97861.71;;;25.83;31.70
77893;BME280;67087;50.094;14.338;2023-06-10T04:21:48;97862.06;;;25.97;31.84
77893;BME280;67087;50.094;14.338;2023-06-10T04:24:12;97861.88;;;25.81;31.78
77893;BME280;67087;50.094;14.338;2023-06-10T04:26:38;97862.11;;;26.34;31.72
77893;BME280;67087;50.094;14.338;2023-06-10T04:29:03;97865.65;;;25.81;31.78
77893;BME280;67087;50.094;14.338;2023-06-10T04:31:28;97870.29;;;25.99;31.90
77893;BME280;67087;50.094;14.338;2023-06-10T04:33:53;97869.84;;;25.34;32.14
77893;BME280;67087;50.094;14.338;2023-06-10T04:36:19;97869.22;;;25.61;32.12
77893;BME280;67087;50.094;14.338;2023-06-10T04:38:44;97869.83;;;25.94;32.07
77893;BME280;67087;50.094;14.338;2023-06-10T04:41:09;97869.62;;;25.97;32.07
77893;BME280;67087;50.094;14.338;2023-06-10T04:43:34;97874.18;;;25.89;32.22
77893;BME280;67087;50.094;14.338;2023-06-10T04:45:59;97875.63;;;25.87;32.03
77893;BME280;67087;50.094;14.338;2023-06-10T04:48:24;97881.97;;;26.15;31.98
77893;BME280;67087;50.094;14.338;2023-06-10T04:50:50;97883.67;;;25.53;32.42
77893;BME280;67087;50.094;14.338;2023-06-10T04:53:15;97883.58;;;25.73;32.23
77893;BME280;67087;50.094;14.338;2023-06-10T04:55:41;97879.71;;;25.73;32.26
77893;BME280;67087;50.094;14.338;2023-06-10T04:58:06;97880.35;;;25.65;32.38
77893;BME280;67087;50.094;14.338;2023-06-10T05:00:31;97880.51;;;25.57;32.52
77893;BME280;67087;50.094;14.338;2023-06-10T05:02:56;97879.56;;;26.07;32.23
77893;BME280;67087;50.094;14.338;2023-06-10T05:05:21;97880.75;;;25.60;32.52
77893;BME280;67087;50.094;14.338;2023-06-10T05:07:47;97882.94;;;25.72;32.69
77893;BME280;67087;50.094;14.338;2023-06-10T05:10:11;97884.49;;;25.60;32.87
77893;BME280;67087;50.094;14.338;2023-06-10T05:12:36;97882.22;;;25.92;32.50
77893;BME280;67087;50.094;14.338;2023-06-10T05:15:01;97881.30;;;25.53;32.70
77893;BME280;67087;50.094;14.338;2023-06-10T05:17:28;97885.79;;;25.94;32.79
77893;BME280;67087;50.094;14.338;2023-06-10T05:19:52;97888.00;;;25.53;32.74
77893;BME280;67087;50.094;14.338;2023-06-10T05:22:17;97886.94;;;26.01;32.48
77893;BME280;67087;50.094;14.338;2023-06-10T05:24:42;97886.71;;;26.02;32.49
77893;BME280;67087;50.094;14.338;2023-06-10T05:27:08;97889.98;;;25.65;32.91
77893;BME280;67087;50.094;14.338;2023-06-10T05:29:33;97889.87;;;25.74;32.87
77893;BME280;67087;50.094;14.338;2023-06-10T05:31:58;97895.02;;;25.70;32.61
77893;BME280;67087;50.094;14.338;2023-06-10T05:34:24;97895.87;;;25.60;33.06
77893;BME280;67087;50.094;14.338;2023-06-10T05:36:49;97901.13;;;25.44;33.00
77893;BME280;67087;50.094;14.338;2023-06-10T05:39:14;97900.05;;;25.76;32.86
77893;BME280;67087;50.094;14.338;2023-06-10T05:41:39;97897.54;;;25.53;32.89
77893;BME280;67087;50.094;14.338;2023-06-10T05:44:04;97898.62;;;26.18;32.38
77893;BME280;67087;50.094;14.338;2023-06-10T05:46:30;97900.61;;;25.87;32.43
77893;BME280;67087;50.094;14.338;2023-06-10T05:48:55;97901.19;;;25.87;32.40
77893;BME280;67087;50.094;14.338;2023-06-10T05:51:20;97903.77;;;25.67;32.91
77893;BME280;67087;50.094;14.338;2023-06-10T05:53:46;97905.31;;;25.58;32.70
77893;BME280;67087;50.094;14.338;2023-06-10T05:56:11;97906.57;;;25.43;32.82
77893;BME280;67087;50.094;14.338;2023-06-10T05:58:36;97908.95;;;25.97;32.44
77893;BME280;67087;50.094;14.338;2023-06-10T06:01:01;97907.39;;;25.86;32.58
77893;BME280;67087;50.094;14.338;2023-06-10T06:03:26;97907.13;;;25.85;32.56
77893;BME280;67087;50.094;14.338;2023-06-10T06:05:51;97906.68;;;25.59;32.62
77893;BME280;67087;50.094;14.338;2023-06-10T06:08:16;97907.96;;;25.88;32.55
77893;BME280;67087;50.094;14.338;2023-06-10T06:10:41;97905.82;;;25.85;32.32
77893;BME280;67087;50.094;14.338;2023-06-10T06:13:06;97905.88;;;25.94;32.78
77893;BME280;67087;50.094;14.338;2023-06-10T06:15:31;97907.94;;;26.00;32.71
77893;BME280;67087;50.094;14.338;2023-06-10T06:17:57;97908.60;;;25.65;32.59
77893;BME280;67087;50.094;14.338;2023-06-10T06:20:22;97907.29;;;25.66;32.84
77893;BME280;67087;50.094;14.338;2023-06-10T06:22:47;97905.97;;;25.60;32.63
77893;BME280;67087;50.094;14.338;2023-06-10T06:25:13;97912.85;;;25.65;32.56
77893;BME280;67087;50.094;14.338;2023-06-10T06:27:38;97911.81;;;25.62;32.55
77893;BME280;67087;50.094;14.338;2023-06-10T06:30:04;97913.34;;;26.09;32.20
77893;BME280;67087;50.094;14.338;2023-06-10T06:32:28;97914.29;;;26.08;32.52
77893;BME280;67087;50.094;14.338;2023-06-10T06:34:53;97917.26;;;25.69;32.43
77893;BME280;67087;50.094;14.338;2023-06-10T06:37:18;97920.02;;;25.84;32.26
77893;BME280;67087;50.094;14.338;2023-06-10T06:39:43;97921.11;;;25.80;32.58
77893;BME280;67087;50.094;14.338;2023-06-10T06:42:08;97922.77;;;25.83;32.57
77893;BME280;67087;50.094;14.338;2023-06-10T06:44:33;97922.91;;;25.72;32.70
77893;BME280;67087;50.094;14.338;2023-06-10T06:46:59;97918.57;;;25.56;32.56
77893;BME280;67087;50.094;14.338;2023-06-10T06:49:24;97921.79;;;25.53;32.57
77893;BME280;67087;50.094;14.338;2023-06-10T06:51:49;97926.62;;;25.62;32.45
77893;BME280;67087;50.094;14.338;2023-06-10T06:54:14;97931.55;;;25.84;32.19
77893;BME280;67087;50.094;14.338;2023-06-10T06:56:39;97932.84;;;26.06;32.47
77893;BME280;67087;50.094;14.338;2023-06-10T06:59:04;97933.68;;;25.77;32.58
77893;BME280;67087;50.094;14.338;2023-06-10T07:01:29;97932.74;;;25.91;32.39
77893;BME280;67087;50.094;14.338;2023-06-10T07:03:54;97939.43;;;25.42;32.69
77893;BME280;67087;50.094;14.338;2023-06-10T07:06:20;97937.16;;;25.77;32.56
77893;BME280;67087;50.094;14.338;2023-06-10T07:08:45;97941.50;;;25.81;32.49
77893;BME280;67087;50.094;14.338;2023-06-10T07:11:10;97943.32;;;25.62;32.68
77893;BME280;67087;50.094;14.338;2023-06-10T07:13:35;97943.58;;;25.70;32.53
77893;BME280;67087;50.094;14.338;2023-06-10T07:16:00;97938.96;;;25.47;32.45
77893;BME280;67087;50.094;14.338;2023-06-10T07:18:25;97945.67;;;25.88;32.57
77893;BME280;67087;50.094;14.338;2023-06-10T07:20:50;97944.09;;;25.92;32.27
77893;BME280;67087;50.094;14.338;2023-06-10T07:23:15;97943.17;;;25.74;32.53
77893;BME280;67087;50.094;14.338;2023-06-10T07:25:41;97951.78;;;25.74;32.56
77893;BME280;67087;50.094;14.338;2023-06-10T07:28:06;97956.22;;;25.74;32.62
77893;BME280;67087;50.094;14.338;2023-06-10T07:30:31;97955.74;;;25.67;32.71
77893;BME280;67087;50.094;14.338;2023-06-10T07:32:57;97955.30;;;25.54;32.60
77893;BME280;67087;50.094;14.338;2023-06-10T07:35:22;97959.15;;;26.04;32.28
77893;BME280;67087;50.094;14.338;2023-06-10T07:37:47;97955.73;;;26.11;32.47
77893;BME280;67087;50.094;14.338;2023-06-10T07:40:12;97961.31;;;25.48;32.68
77893;BME280;67087;50.094;14.338;2023-06-10T07:42:37;97963.45;;;25.82;32.51
77893;BME280;67087;50.094;14.338;2023-06-10T07:45:03;97965.54;;;25.54;32.60
77893;BME280;67087;50.094;14.338;2023-06-10T07:47:28;97966.77;;;25.82;32.57
77893;BME280;67087;50.094;14.338;2023-06-10T07:49:53;97963.27;;;25.68;32.48
77893;BME280;67087;50.094;14.338;2023-06-10T07:52:19;97960.89;;;25.93;32.45
77893;BME280;67087;50.094;14.338;2023-06-10T07:54:44;97960.13;;;25.68;32.50
77893;BME280;67087;50.094;14.338;2023-06-10T07:57:09;97967.94;;;25.83;32.56
77893;BME280;67087;50.094;14.338;2023-06-10T07:59:34;97971.61;;;25.87;32.49
77893;BME280;67087;50.094;14.338;2023-06-10T08:01:59;97971.77;;;25.61;32.53
77893;BME280;67087;50.094;14.338;2023-06-10T08:04:24;97974.14;;;26.07;32.27
77893;BME280;67087;50.094;14.338;2023-06-10T08:06:50;97976.76;;;25.60;32.52
77893;BME280;67087;50.094;14.338;2023-06-10T08:09:14;97973.72;;;25.64;32.47
77893;BME280;67087;50.094;14.338;2023-06-10T08:11:40;97975.69;;;25.99;32.39
77893;BME280;67087;50.094;14.338;2023-06-10T08:14:05;97976.28;;;25.76;32.40
77893;BME280;67087;50.094;14.338;2023-06-10T08:16:30;97977.20;;;25.77;32.65
77893;BME280;67087;50.094;14.338;2023-06-10T08:18:56;97978.89;;;25.57;32.35
77893;BME280;67087;50.094;14.338;2023-06-10T08:21:22;97984.93;;;25.73;32.44
77893;BME280;67087;50.094;14.338;2023-06-10T08:23:49;97984.83;;;25.83;32.62
77893;BME280;67087;50.094;14.338;2023-06-10T08:26:13;97993.87;;;25.83;32.66
77893;BME280;67087;50.094;14.338;2023-06-10T08:28:38;97992.17;;;25.81;32.69
77893;BME280;67087;50.094;14.338;2023-06-10T08:31:03;97989.58;;;25.50;32.52
77893;BME280;67087;50.094;14.338;2023-06-10T08:33:29;97989.62;;;25.86;32.68
77893;BME280;67087;50.094;14.338;2023-06-10T08:35:54;97996.32;;;25.92;32.36
77893;BME280;67087;50.094;14.338;2023-06-10T08:38:19;97993.47;;;25.58;32.84
77893;BME280;67087;50.094;14.338;2023-06-10T08:40:44;97999.40;;;25.78;32.93
77893;BME280;67087;50.094;14.338;2023-06-10T08:43:17;97996.96;;;26.01;32.38
77893;BME280;67087;50.094;14.338;2023-06-10T08:45:36;97999.41;;;26.05;32.97
77893;BME280;67087;50.094;14.338;2023-06-10T08:48:00;97997.78;;;25.92;32.87
77893;BME280;67087;50.094;14.338;2023-06-10T08:50:26;97999.54;;;25.50;33.15
77893;BME280;67087;50.094;14.338;2023-06-10T08:52:54;98001.67;;;26.34;32.11
77893;BME280;67087;50.094;14.338;2023-06-10T08:55:18;98001.85;;;26.55;32.39
77893;BME280;67087;50.094;14.338;2023-06-10T08:57:41;98003.95;;;26.27;32.49
77893;BME280;67087;50.094;14.338;2023-06-10T09:00:07;97998.83;;;25.46;33.22
77893;BME280;67087;50.094;14.338;2023-06-10T09:02:33;97996.53;;;25.85;33.11
77893;BME280;67087;50.094;14.338;2023-06-10T09:04:58;97991.65;;;25.51;33.30
77893;BME280;67087;50.094;14.338;2023-06-10T09:07:23;97991.43;;;25.80;32.98
77893;BME280;67087;50.094;14.338;2023-06-10T09:09:49;97992.64;;;25.34;33.33
77893;BME280;67087;50.094;14.338;2023-06-10T09:12:14;97994.20;;;25.83;33.05
77893;BME280;67087;50.094;14.338;2023-06-10T09:14:39;97994.04;;;25.54;33.44
77893;BME280;67087;50.094;14.338;2023-06-10T09:17:06;97997.27;;;25.84;33.38
77893;BME280;67087;50.094;14.338;2023-06-10T09:19:30;98001.31;;;25.74;33.26
77893;BME280;67087;50.094;14.338;2023-06-10T09:21:55;98000.41;;;25.25;33.23
77893;BME280;67087;50.094;14.338;2023-06-10T09:24:22;97999.90;;;25.63;33.32
77893;BME280;67087;50.094;14.338;2023-06-10T09:26:45;98000.45;;;25.91;33.19
77893;BME280;67087;50.094;14.338;2023-06-10T09:29:10;98004.08;;;25.96;33.14
77893;BME280;67087;50.094;14.338;2023-06-10T09:31:36;98008.42;;;25.86;33.03
77893;BME280;67087;50.094;14.338;2023-06-10T09:34:06;98006.08;;;25.73;33.13
77893;BME280;67087;50.094;14.338;2023-06-10T09:36:26;98005.66;;;25.98;33.12
77893;BME280;67087;50.094;14.338;2023-06-10T09:38:52;98010.21;;;25.25;33.10
77893;BME280;67087;50.094;14.338;2023-06-10T09:41:17;98013.88;;;25.89;32.87
77893;BME280;67087;50.094;14.338;2023-06-10T09:43:44;98012.23;;;26.00;32.99
77893;BME280;67087;50.094;14.338;2023-06-10T09:46:14;98012.31;;;25.97;32.72
77893;BME280;67087;50.094;14.338;2023-06-10T09:48:35;98011.82;;;26.16;33.08
77893;BME280;67087;50.094;14.338;2023-06-10T09:50:58;98013.40;;;25.51;32.99
77893;BME280;67087;50.094;14.338;2023-06-10T09:53:23;98009.35;;;25.82;33.22
77893;BME280;67087;50.094;14.338;2023-06-10T09:55:48;98014.28;;;25.63;33.15
77893;BME280;67087;50.094;14.338;2023-06-10T09:58:14;98016.42;;;25.97;33.08
77893;BME280;67087;50.094;14.338;2023-06-10T10:00:39;98019.22;;;25.85;33.18
77893;BME280;67087;50.094;14.338;2023-06-10T10:03:04;98021.59;;;25.94;32.83
77893;BME280;67087;50.094;14.338;2023-06-10T10:05:30;98019.29;;;25.67;33.13
77893;BME280;67087;50.094;14.338;2023-06-10T10:07:55;98020.66;;;25.68;33.17
77893;BME280;67087;50.094;14.338;2023-06-10T10:10:21;98018.45;;;25.83;33.45
77893;BME280;67087;50.094;14.338;2023-06-10T10:12:47;98016.61;;;25.75;33.61
77893;BME280;67087;50.094;14.338;2023-06-10T10:15:12;98018.51;;;25.72;33.36
77893;BME280;67087;50.094;14.338;2023-06-10T10:17:40;98015.02;;;25.77;33.58
77893;BME280;67087;50.094;14.338;2023-06-10T10:20:04;98014.15;;;25.75;33.25
77893;BME280;67087;50.094;14.338;2023-06-10T10:22:31;98011.66;;;26.30;32.81
77893;BME280;67087;50.094;14.338;2023-06-10T10:24:56;98007.36;;;25.19;33.40
77893;BME280;67087;50.094;14.338;2023-06-10T10:27:27;98001.43;;;25.84;33.48
77893;BME280;67087;50.094;14.338;2023-06-10T10:29:48;98003.02;;;25.88;33.15
77893;BME280;67087;50.094;14.338;2023-06-10T10:32:10;97998.71;;;25.74;33.38
77893;BME280;67087;50.094;14.338;2023-06-10T10:34:37;97998.82;;;26.01;33.02
77893;BME280;67087;50.094;14.338;2023-06-10T10:37:00;97996.37;;;26.13;32.84
77893;BME280;67087;50.094;14.338;2023-06-10T10:39:25;97996.31;;;26.49;32.66
77893;BME280;67087;50.094;14.338;2023-06-10T10:41:52;97995.20;;;25.65;32.74
77893;BME280;67087;50.094;14.338;2023-06-10T10:44:16;97995.17;;;26.25;32.60
77893;BME280;67087;50.094;14.338;2023-06-10T10:46:42;97990.88;;;26.39;32.43
77893;BME280;67087;50.094;14.338;2023-06-10T10:49:07;97991.06;;;26.41;32.64
77893;BME280;67087;50.094;14.338;2023-06-10T10:51:34;97986.85;;;26.56;32.29
77893;BME280;67087;50.094;14.338;2023-06-10T10:54:11;97989.81;;;26.15;32.41
77893;BME280;67087;50.094;14.338;2023-06-10T10:56:27;97991.14;;;26.15;32.64
77893;BME280;67087;50.094;14.338;2023-06-10T11:01:14;97989.24;;;25.99;32.58
77893;BME280;67087;50.094;14.338;2023-06-10T11:03:43;97986.57;;;25.94;32.62
77893;BME280;67087;50.094;14.338;2023-06-10T11:06:11;97984.20;;;26.09;32.47
77893;BME280;67087;50.094;14.338;2023-06-10T11:08:46;97985.01;;;26.42;32.39
77893;BME280;67087;50.094;14.338;2023-06-10T11:10:54;97980.72;;;25.94;32.44
77893;BME280;67087;50.094;14.338;2023-06-10T11:13:20;97978.95;;;26.50;32.00
77893;BME280;67087;50.094;14.338;2023-06-10T11:15:46;97984.45;;;26.22;32.42
77893;BME280;67087;50.094;14.338;2023-06-10T11:18:13;97975.69;;;26.24;32.43
77893;BME280;67087;50.094;14.338;2023-06-10T11:20:45;97967.43;;;26.60;32.05
77893;BME280;67087;50.094;14.338;2023-06-10T11:23:01;97958.73;;;26.57;32.07
77893;BME280;67087;50.094;14.338;2023-06-10T11:27:51;97962.17;;;26.12;32.63
77893;BME280;67087;50.094;14.338;2023-06-10T11:30:20;97956.37;;;26.37;32.33
77893;BME280;67087;50.094;14.338;2023-06-10T11:32:42;97959.98;;;26.96;31.85
77893;BME280;67087;50.094;14.338;2023-06-10T11:35:07;97963.82;;;26.74;32.08
77893;BME280;67087;50.094;14.338;2023-06-10T11:37:32;97961.50;;;26.63;31.89
77893;BME280;67087;50.094;14.338;2023-06-10T11:39:58;97966.31;;;26.40;32.14
77893;BME280;67087;50.094;14.338;2023-06-10T11:42:23;97962.69;;;26.60;31.83
77893;BME280;67087;50.094;14.338;2023-06-10T11:44:49;97965.27;;;26.91;31.68
77893;BME280;67087;50.094;14.338;2023-06-10T11:47:13;97966.65;;;26.21;32.15
77893;BME280;67087;50.094;14.338;2023-06-10T11:49:38;97962.27;;;26.31;32.04
77893;BME280;67087;50.094;14.338;2023-06-10T11:52:05;97958.76;;;26.26;32.07
77893;BME280;67087;50.094;14.338;2023-06-10T11:54:29;97953.26;;;26.45;31.83
77893;BME280;67087;50.094;14.338;2023-06-10T11:56:58;97949.37;;;26.49;31.82
77893;BME280;67087;50.094;14.338;2023-06-10T11:59:27;97946.15;;;26.36;31.94
77893;BME280;67087;50.094;14.338;2023-06-10T12:01:46;97949.86;;;26.44;31.87
77893;BME280;67087;50.094;14.338;2023-06-10T12:04:12;97946.30;;;26.43;31.92
77893;BME280;67087;50.094;14.338;2023-06-10T12:06:38;97938.65;;;26.63;31.65
77893;BME280;67087;50.094;14.338;2023-06-10T12:09:01;97936.54;;;26.35;32.01
77893;BME280;67087;50.094;14.338;2023-06-10T12:11:27;97930.29;;;26.52;31.83
77893;BME280;67087;50.094;14.338;2023-06-10T12:13:52;97930.09;;;25.84;32.07
77893;BME280;67087;50.094;14.338;2023-06-10T12:16:17;97929.76;;;26.92;31.36
77893;BME280;67087;50.094;14.338;2023-06-10T12:18:44;97937.82;;;26.91;31.58
77893;BME280;67087;50.094;14.338;2023-06-10T12:21:15;97936.77;;;26.60;31.67
77893;BME280;67087;50.094;14.338;2023-06-10T12:23:34;97930.91;;;26.83;31.37
77893;BME280;67087;50.094;14.338;2023-06-10T12:25:59;97933.47;;;26.95;31.22
77893;BME280;67087;50.094;14.338;2023-06-10T12:28:25;97937.72;;;27.01;31.04
77893;BME280;67087;50.094;14.338;2023-06-10T12:30:50;97928.92;;;26.58;31.16
77893;BME280;67087;50.094;14.338;2023-06-10T12:33:16;97925.30;;;26.72;31.28
77893;BME280;67087;50.094;14.338;2023-06-10T12:35:48;97921.20;;;26.43;31.65
77893;BME280;67087;50.094;14.338;2023-06-10T12:38:05;97919.33;;;26.99;31.28
77893;BME280;67087;50.094;14.338;2023-06-10T12:40:32;97920.36;;;26.49;31.58
77893;BME280;67087;50.094;14.338;2023-06-10T12:42:56;97917.53;;;26.22;31.33